sensor_id;sensor_type;location;lat;lon;timestamp;noise_LAeq;noise_LA_min;noise_LA_max;noise_LA01;noise_LA95
37163;Laerm;23057;48.554;14.454;2024-01-27T00:02:14;37.30;33.44;40.23;;
37163;Laerm;23057;48.554;14.454;2024-01-27T00:04:45;37.32;32.35;40.03;;
37163;Laerm;23057;48.554;14.454;2024-01-27T00:07:16;37.30;32.93;40.03;;
37163;Laerm;23057;48.554;14.454;2024-01-27T00:09:46;37.34;33.44;40.43;;
37163;Laerm;23057;48.554;14.454;2024-01-27T00:12:17;37.33;33.44;39.81;;
37163;Laerm;23057;48.554;14.454;2024-01-27T00:14:48;37.33;32.93;39.58;;
37163;Laerm;23057;48.554;14.454;2024-01-27T00:17:19;37.33;33.44;39.70;;
37163;Laerm;23057;48.554;14.454;2024-01-27T00:19:55;37.31;33.44;40.53;;
37163;Laerm;23057;48.554;14.454;2024-01-27T00:22:25;37.30;32.35;39.70;;
37163;Laerm;23057;48.554;14.454;2024-01-27T00:24:56;37.30;33.44;39.92;;
37163;Laerm;23057;48.554;14.454;2024-01-27T00:27:27;37.32;32.93;39.92;;
37163;Laerm;23057;48.554;14.454;2024-01-27T00:29:58;37.33;33.44;39.70;;
37163;Laerm;23057;48.554;14.454;2024-01-27T00:32:29;37.33;32.93;39.92;;
37163;Laerm;23057;48.554;14.454;2024-01-27T00:34:59;37.31;33.44;39.81;;
37163;Laerm;23057;48.554;14.454;2024-01-27T00:37:30;37.31;33.44;40.03;;
37163;Laerm;23057;48.554;14.454;2024-01-27T00:40:01;37.27;32.35;39.70;;
37163;Laerm;23057;48.554;14.454;2024-01-27T00:42:32;37.29;32.35;40.23;;
37163;Laerm;23057;48.554;14.454;2024-01-27T00:45:05;37.27;32.93;39.81;;
37163;Laerm;23057;48.554;14.454;2024-01-27T00:47:36;37.29;32.93;40.23;;
37163;Laerm;23057;48.554;14.454;2024-01-27T00:50:07;37.26;32.93;40.13;;
37163;Laerm;23057;48.554;14.454;2024-01-27T00:52:39;37.24;33.44;40.33;;
37163;Laerm;23057;48.554;14.454;2024-01-27T00:55:10;37.28;32.93;39.81;;
37163;Laerm;23057;48.554;14.454;2024-01-27T00:57:41;37.23;33.09;40.03;;
37163;Laerm;23057;48.554;14.454;2024-01-27T01:00:13;37.26;32.93;39.92;;
37163;Laerm;23057;48.554;14.454;2024-01-27T01:02:44;37.26;33.44;40.13;;
37163;Laerm;23057;48.554;14.454;2024-01-27T01:05:15;37.25;32.35;39.58;;
37163;Laerm;23057;48.554;14.454;2024-01-27T01:07:45;37.22;32.35;40.03;;
37163;Laerm;23057;48.554;14.454;2024-01-27T01:10:16;37.21;30.89;40.03;;
37163;Laerm;23057;48.554;14.454;2024-01-27T01:12:47;37.22;30.89;39.92;;
37163;Laerm;23057;48.554;14.454;2024-01-27T01:15:18;37.17;32.93;40.13;;
37163;Laerm;23057;48.554;14.454;2024-01-27T01:17:49;37.20;32.35;39.92;;
37163;Laerm;23057;48.554;14.454;2024-01-27T01:20:20;37.21;32.00;40.03;;
37163;Laerm;23057;48.554;14.454;2024-01-27T01:22:50;37.17;32.35;40.23;;
37163;Laerm;23057;48.554;14.454;2024-01-27T01:25:21;37.20;32.93;39.70;;
37163;Laerm;23057;48.554;14.454;2024-01-27T01:27:52;37.17;32.93;40.33;;
37163;Laerm;23057;48.554;14.454;2024-01-27T01:30:23;37.18;32.93;40.03;;
37163;Laerm;23057;48.554;14.454;2024-01-27T01:32:54;37.16;32.35;39.92;;
37163;Laerm;23057;48.554;14.454;2024-01-27T01:35:25;37.15;32.93;39.81;;
37163;Laerm;23057;48.554;14.454;2024-01-27T01:37:55;37.18;33.44;39.81;;
37163;Laerm;23057;48.554;14.454;2024-01-27T01:40:26;37.17;32.93;39.81;;
37163;Laerm;23057;48.554;14.454;2024-01-27T01:42:59;37.15;33.44;40.03;;
37163;Laerm;23057;48.554;14.454;2024-01-27T01:45:30;37.18;30.89;39.81;;
37163;Laerm;23057;48.554;14.454;2024-01-27T01:48:01;37.14;32.93;40.03;;
37163;Laerm;23057;48.554;14.454;2024-01-27T01:50:33;37.14;32.93;40.03;;
37163;Laerm;23057;48.554;14.454;2024-01-27T01:53:05;37.12;31.68;39.70;;
37163;Laerm;23057;48.554;14.454;2024-01-27T01:55:37;37.13;32.35;39.99;;
37163;Laerm;23057;48.554;14.454;2024-01-27T01:58:09;37.13;32.35;39.81;;
37163;Laerm;23057;48.554;14.454;2024-01-27T02:00:40;37.15;32.35;40.13;;
37163;Laerm;23057;48.554;14.454;2024-01-27T02:03:13;37.17;30.89;40.43;;
37163;Laerm;23057;48.554;14.454;2024-01-27T02:05:44;37.15;32.93;39.81;;
37163;Laerm;23057;48.554;14.454;2024-01-27T02:08:15;37.17;32.35;40.03;;
37163;Laerm;23057;48.554;14.454;2024-01-27T02:10:46;37.17;31.68;39.92;;
37163;Laerm;23057;48.554;14.454;2024-01-27T02:13:22;37.15;32.93;39.81;;
37163;Laerm;23057;48.554;14.454;2024-01-27T02:15:53;37.18;33.44;39.92;;
37163;Laerm;23057;48.554;14.454;2024-01-27T02:18:24;37.17;32.35;40.13;;
37163;Laerm;23057;48.554;14.454;2024-01-27T02:20:55;37.19;32.93;40.03;;
37163;Laerm;23057;48.554;14.454;2024-01-27T02:23:26;37.21;32.35;40.13;;
37163;Laerm;23057;48.554;14.454;2024-01-27T02:25:57;37.16;32.93;39.70;;
37163;Laerm;23057;48.554;14.454;2024-01-27T02:28:27;37.22;33.44;39.81;;
37163;Laerm;23057;48.554;14.454;2024-01-27T02:31:02;37.18;32.35;40.13;;
37163;Laerm;23057;48.554;14.454;2024-01-27T02:33:33;37.20;32.35;39.92;;
37163;Laerm;23057;48.554;14.454;2024-01-27T02:36:05;37.21;33.44;39.92;;
37163;Laerm;23057;48.554;14.454;2024-01-27T02:38:36;37.20;33.44;39.58;;
37163;Laerm;23057;48.554;14.454;2024-01-27T02:41:06;37.20;33.44;40.23;;
37163;Laerm;23057;48.554;14.454;2024-01-27T02:43:38;37.25;32.93;39.92;;
37163;Laerm;23057;48.554;14.454;2024-01-27T02:46:12;37.27;33.44;40.13;;
37163;Laerm;23057;48.554;14.454;2024-01-27T02:48:43;37.26;33.44;39.92;;
37163;Laerm;23057;48.554;14.454;2024-01-27T02:51:19;37.26;32.35;40.62;;
37163;Laerm;23057;48.554;14.454;2024-01-27T02:53:51;37.27;32.35;39.92;;
37163;Laerm;23057;48.554;14.454;2024-01-27T02:56:22;37.27;32.93;39.92;;
37163;Laerm;23057;48.554;14.454;2024-01-27T02:58:52;37.24;32.35;39.58;;
37163;Laerm;23057;48.554;14.454;2024-01-27T03:01:23;37.28;33.44;40.03;;
37163;Laerm;23057;48.554;14.454;2024-01-27T03:03:55;37.28;32.93;39.81;;
37163;Laerm;23057;48.554;14.454;2024-01-27T03:06:26;37.26;32.93;39.92;;
37163;Laerm;23057;48.554;14.454;2024-01-27T03:08:56;37.23;33.44;40.03;;
37163;Laerm;23057;48.554;14.454;2024-01-27T03:11:27;37.24;32.93;40.33;;
37163;Laerm;23057;48.554;14.454;2024-01-27T03:13:58;37.22;33.44;40.03;;
37163;Laerm;23057;48.554;14.454;2024-01-27T03:16:29;37.19;31.68;39.81;;
37163;Laerm;23057;48.554;14.454;2024-01-27T03:19:00;37.19;32.93;39.81;;
37163;Laerm;23057;48.554;14.454;2024-01-27T03:21:31;37.17;32.93;40.03;;
37163;Laerm;23057;48.554;14.454;2024-01-27T03:24:02;37.19;31.68;39.92;;
37163;Laerm;23057;48.554;14.454;2024-01-27T03:26:33;37.17;32.93;39.81;;
37163;Laerm;23057;48.554;14.454;2024-01-27T03:29:04;37.19;32.93;40.23;;
37163;Laerm;23057;48.554;14.454;2024-01-27T03:31:35;37.17;32.93;39.92;;
37163;Laerm;23057;48.554;14.454;2024-01-27T03:34:06;37.15;32.35;39.81;;
37163;Laerm;23057;48.554;14.454;2024-01-27T03:36:36;37.16;32.35;40.23;;
37163;Laerm;23057;48.554;14.454;2024-01-27T03:39:07;37.15;32.93;39.70;;
37163;Laerm;23057;48.554;14.454;2024-01-27T03:41:39;37.11;32.93;40.33;;
37163;Laerm;23057;48.554;14.454;2024-01-27T03:44:10;37.09;32.93;39.92;;
37163;Laerm;23057;48.554;14.454;2024-01-27T03:46:41;37.12;32.35;39.70;;
37163;Laerm;23057;48.554;14.454;2024-01-27T03:49:11;37.08;32.35;39.81;;
37163;Laerm;23057;48.554;14.454;2024-01-27T03:51:42;37.09;32.35;39.58;;
37163;Laerm;23057;48.554;14.454;2024-01-27T03:54:13;37.10;33.44;39.46;;
37163;Laerm;23057;48.554;14.454;2024-01-27T03:56:44;37.09;32.35;39.92;;
37163;Laerm;23057;48.554;14.454;2024-01-27T03:59:15;37.07;32.35;39.81;;
37163;Laerm;23057;48.554;14.454;2024-01-27T04:01:45;37.04;31.68;40.13;;
37163;Laerm;23057;48.554;14.454;2024-01-27T04:04:16;37.02;32.35;40.43;;
37163;Laerm;23057;48.554;14.454;2024-01-27T04:06:47;37.04;30.89;39.81;;
37163;Laerm;23057;48.554;14.454;2024-01-27T04:09:18;37.04;31.68;39.70;;
37163;Laerm;23057;48.554;14.454;2024-01-27T04:11:49;37.03;32.00;39.92;;
37163;Laerm;23057;48.554;14.454;2024-01-27T04:14:20;37.06;32.93;40.03;;
37163;Laerm;23057;48.554;14.454;2024-01-27T04:16:50;37.03;32.35;39.92;;
37163;Laerm;23057;48.554;14.454;2024-01-27T04:19:21;37.06;32.35;39.92;;
37163;Laerm;23057;48.554;14.454;2024-01-27T04:21:52;37.04;31.68;39.92;;
37163;Laerm;23057;48.554;14.454;2024-01-27T04:24:23;37.02;31.68;40.13;;
37163;Laerm;23057;48.554;14.454;2024-01-27T04:26:54;37.03;32.35;40.03;;
37163;Laerm;23057;48.554;14.454;2024-01-27T04:29:25;37.04;31.68;39.70;;
37163;Laerm;23057;48.554;14.454;2024-01-27T04:31:55;37.06;32.35;40.13;;
37163;Laerm;23057;48.554;14.454;2024-01-27T04:34:26;37.02;31.68;39.70;;
37163;Laerm;23057;48.554;14.454;2024-01-27T04:36:57;37.02;32.35;39.92;;
37163;Laerm;23057;48.554;14.454;2024-01-27T04:39:28;37.02;31.68;39.58;;
37163;Laerm;23057;48.554;14.454;2024-01-27T04:41:59;37.02;30.89;39.81;;
37163;Laerm;23057;48.554;14.454;2024-01-27T04:44:30;37.00;32.35;39.70;;
37163;Laerm;23057;48.554;14.454;2024-01-27T04:47:01;37.02;32.35;39.58;;
37163;Laerm;23057;48.554;14.454;2024-01-27T04:49:32;36.99;31.68;39.92;;
37163;Laerm;23057;48.554;14.454;2024-01-27T04:52:03;37.00;32.93;39.70;;
37163;Laerm;23057;48.554;14.454;2024-01-27T04:54:34;36.96;32.35;39.70;;
37163;Laerm;23057;48.554;14.454;2024-01-27T04:57:05;36.97;30.89;39.92;;
37163;Laerm;23057;48.554;14.454;2024-01-27T04:59:35;36.99;31.68;40.03;;
37163;Laerm;23057;48.554;14.454;2024-01-27T05:02:06;36.96;31.68;40.03;;
37163;Laerm;23057;48.554;14.454;2024-01-27T05:04:37;36.98;32.93;39.81;;
37163;Laerm;23057;48.554;14.454;2024-01-27T05:07:09;36.96;32.35;39.92;;
37163;Laerm;23057;48.554;14.454;2024-01-27T05:09:39;36.97;30.89;39.92;;
37163;Laerm;23057;48.554;14.454;2024-01-27T05:12:10;36.92;32.35;39.58;;
37163;Laerm;23057;48.554;14.454;2024-01-27T05:14:45;36.91;29.92;40.88;;
37163;Laerm;23057;48.554;14.454;2024-01-27T05:17:16;36.91;32.35;39.70;;
37163;Laerm;23057;48.554;14.454;2024-01-27T05:19:47;36.92;31.68;39.70;;
37163;Laerm;23057;48.554;14.454;2024-01-27T05:22:17;36.93;30.89;39.70;;
37163;Laerm;23057;48.554;14.454;2024-01-27T05:24:48;36.94;31.68;39.70;;
37163;Laerm;23057;48.554;14.454;2024-01-27T05:27:19;36.94;32.35;39.58;;
37163;Laerm;23057;48.554;14.454;2024-01-27T05:29:50;36.92;28.67;39.70;;
37163;Laerm;23057;48.554;14.454;2024-01-27T05:32:21;36.90;32.35;39.92;;
37163;Laerm;23057;48.554;14.454;2024-01-27T05:34:51;36.90;32.35;39.81;;
37163;Laerm;23057;48.554;14.454;2024-01-27T05:37:23;36.91;30.89;39.58;;
37163;Laerm;23057;48.554;14.454;2024-01-27T05:39:54;36.90;31.68;39.92;;
37163;Laerm;23057;48.554;14.454;2024-01-27T05:42:24;36.89;31.68;39.81;;
37163;Laerm;23057;48.554;14.454;2024-01-27T05:44:55;36.91;31.68;39.46;;
37163;Laerm;23057;48.554;14.454;2024-01-27T05:47:26;36.91;30.89;39.92;;
37163;Laerm;23057;48.554;14.454;2024-01-27T05:49:57;36.92;32.35;39.58;;
37163;Laerm;23057;48.554;14.454;2024-01-27T05:52:28;36.89;32.93;39.70;;
37163;Laerm;23057;48.554;14.454;2024-01-27T05:54:58;36.89;30.89;39.92;;
37163;Laerm;23057;48.554;14.454;2024-01-27T05:57:29;36.90;32.35;40.13;;
37163;Laerm;23057;48.554;14.454;2024-01-27T06:00:00;36.92;30.89;40.03;;
37163;Laerm;23057;48.554;14.454;2024-01-27T06:02:31;36.92;31.68;39.58;;
37163;Laerm;23057;48.554;14.454;2024-01-27T06:05:02;36.93;30.89;39.81;;
37163;Laerm;23057;48.554;14.454;2024-01-27T06:07:33;36.96;32.35;40.03;;
37163;Laerm;23057;48.554;14.454;2024-01-27T06:10:08;36.97;31.68;39.92;;
37163;Laerm;23057;48.554;14.454;2024-01-27T06:12:40;36.99;32.93;39.70;;
37163;Laerm;23057;48.554;14.454;2024-01-27T06:15:10;37.01;30.89;39.92;;
37163;Laerm;23057;48.554;14.454;2024-01-27T06:17:41;37.00;32.35;39.70;;
37163;Laerm;23057;48.554;14.454;2024-01-27T06:20:12;37.07;30.89;39.81;;
37163;Laerm;23057;48.554;14.454;2024-01-27T06:22:43;37.04;32.35;40.23;;
37163;Laerm;23057;48.554;14.454;2024-01-27T06:25:14;37.09;33.44;39.89;;
37163;Laerm;23057;48.554;14.454;2024-01-27T06:27:45;37.03;29.92;40.23;;
37163;Laerm;23057;48.554;14.454;2024-01-27T06:30:16;37.08;32.35;40.33;;
37163;Laerm;23057;48.554;14.454;2024-01-27T06:32:47;37.05;32.93;39.70;;
37163;Laerm;23057;48.554;14.454;2024-01-27T06:35:18;37.07;31.68;40.23;;
37163;Laerm;23057;48.554;14.454;2024-01-27T06:37:49;37.08;32.35;39.58;;
37163;Laerm;23057;48.554;14.454;2024-01-27T06:40:21;37.04;31.68;40.08;;
37163;Laerm;23057;48.554;14.454;2024-01-27T06:42:51;37.04;31.68;39.81;;
37163;Laerm;23057;48.554;14.454;2024-01-27T06:45:22;37.04;32.35;39.92;;
37163;Laerm;23057;48.554;14.454;2024-01-27T06:47:53;37.01;30.89;39.92;;
37163;Laerm;23057;48.554;14.454;2024-01-27T06:50:24;37.04;32.35;39.99;;
37163;Laerm;23057;48.554;14.454;2024-01-27T06:52:55;37.02;32.58;39.92;;
37163;Laerm;23057;48.554;14.454;2024-01-27T06:55:26;37.02;32.35;39.70;;
37163;Laerm;23057;48.554;14.454;2024-01-27T06:57:57;37.02;31.68;39.81;;
37163;Laerm;23057;48.554;14.454;2024-01-27T07:00:27;37.02;32.35;40.03;;
37163;Laerm;23057;48.554;14.454;2024-01-27T07:02:58;37.03;32.93;39.70;;
37163;Laerm;23057;48.554;14.454;2024-01-27T07:05:29;37.04;30.89;40.33;;
37163;Laerm;23057;48.554;14.454;2024-01-27T07:08:00;37.02;31.68;39.92;;
37163;Laerm;23057;48.554;14.454;2024-01-27T07:10:31;37.07;32.35;39.70;;
37163;Laerm;23057;48.554;14.454;2024-01-27T07:13:02;37.12;31.68;39.92;;
37163;Laerm;23057;48.554;14.454;2024-01-27T07:15:33;37.22;32.35;40.23;;
37163;Laerm;23057;48.554;14.454;2024-01-27T07:18:05;37.41;31.68;40.23;;
37163;Laerm;23057;48.554;14.454;2024-01-27T07:20:36;37.58;33.90;40.13;;
37163;Laerm;23057;48.554;14.454;2024-01-27T07:23:07;37.77;34.31;47.26;;
37163;Laerm;23057;48.554;14.454;2024-01-27T07:25:37;37.83;34.31;40.23;;
37163;Laerm;23057;48.554;14.454;2024-01-27T07:28:08;37.82;34.31;40.62;;
37163;Laerm;23057;48.554;14.454;2024-01-27T07:30:39;37.96;33.44;53.13;;
37163;Laerm;23057;48.554;14.454;2024-01-27T07:33:10;37.96;33.90;40.62;;
37163;Laerm;23057;48.554;14.454;2024-01-27T07:35:41;38.11;35.04;40.53;;
37163;Laerm;23057;48.554;14.454;2024-01-27T07:38:12;38.21;34.31;40.89;;
37163;Laerm;23057;48.554;14.454;2024-01-27T07:40:42;38.28;34.69;40.71;;
37163;Laerm;23057;48.554;14.454;2024-01-27T07:43:13;38.34;34.69;40.89;;
37163;Laerm;23057;48.554;14.454;2024-01-27T07:45:44;38.37;35.04;40.62;;
37163;Laerm;23057;48.554;14.454;2024-01-27T07:48:15;38.37;35.04;40.80;;
37163;Laerm;23057;48.554;14.454;2024-01-27T07:50:46;38.41;34.69;40.98;;
37163;Laerm;23057;48.554;14.454;2024-01-27T07:53:19;38.39;35.04;40.80;;
37163;Laerm;23057;48.554;14.454;2024-01-27T07:55:49;38.42;34.69;40.98;;
37163;Laerm;23057;48.554;14.454;2024-01-27T07:58:21;38.38;34.69;40.80;;
37163;Laerm;23057;48.554;14.454;2024-01-27T08:00:52;38.40;35.04;40.62;;
37163;Laerm;23057;48.554;14.454;2024-01-27T08:03:23;38.39;34.31;40.80;;
37163;Laerm;23057;48.554;14.454;2024-01-27T08:05:54;38.40;35.36;40.71;;
37163;Laerm;23057;48.554;14.454;2024-01-27T08:08:26;38.35;35.31;40.71;;
37163;Laerm;23057;48.554;14.454;2024-01-27T08:10:57;38.23;35.04;40.98;;
37163;Laerm;23057;48.554;14.454;2024-01-27T08:13:28;38.07;35.36;40.33;;
37163;Laerm;23057;48.554;14.454;2024-01-27T08:15:58;38.02;34.69;40.23;;
37163;Laerm;23057;48.554;14.454;2024-01-27T08:18:29;37.99;34.69;40.71;;
37163;Laerm;23057;48.554;14.454;2024-01-27T08:21:00;38.06;35.04;40.53;;
37163;Laerm;23057;48.554;14.454;2024-01-27T08:23:31;38.06;34.31;40.53;;
37163;Laerm;23057;48.554;14.454;2024-01-27T08:26:02;37.92;34.31;40.23;;
37163;Laerm;23057;48.554;14.454;2024-01-27T08:28:33;37.83;34.69;40.33;;
37163;Laerm;23057;48.554;14.454;2024-01-27T08:31:04;37.78;33.90;40.23;;
37163;Laerm;23057;48.554;14.454;2024-01-27T08:33:35;37.73;33.90;40.53;;
37163;Laerm;23057;48.554;14.454;2024-01-27T08:36:06;37.71;34.31;40.13;;
37163;Laerm;23057;48.554;14.454;2024-01-27T08:38:37;37.71;34.31;40.13;;
37163;Laerm;23057;48.554;14.454;2024-01-27T08:41:08;37.70;34.69;40.13;;
37163;Laerm;23057;48.554;14.454;2024-01-27T08:43:39;37.70;33.90;40.33;;
37163;Laerm;23057;48.554;14.454;2024-01-27T08:46:10;37.69;34.31;40.03;;
37163;Laerm;23057;48.554;14.454;2024-01-27T08:48:42;37.67;33.90;40.23;;
37163;Laerm;23057;48.554;14.454;2024-01-27T08:51:13;37.68;34.31;39.81;;
37163;Laerm;23057;48.554;14.454;2024-01-27T08:53:46;37.69;33.90;39.92;;
37163;Laerm;23057;48.554;14.454;2024-01-27T08:56:19;37.72;34.31;40.43;;
37163;Laerm;23057;48.554;14.454;2024-01-27T08:58:50;37.72;34.69;40.43;;
37163;Laerm;23057;48.554;14.454;2024-01-27T09:01:21;37.72;34.31;40.53;;
37163;Laerm;23057;48.554;14.454;2024-01-27T09:03:52;37.70;34.34;40.23;;
37163;Laerm;23057;48.554;14.454;2024-01-27T09:06:23;37.69;34.31;40.33;;
37163;Laerm;23057;48.554;14.454;2024-01-27T09:08:54;37.71;34.31;40.03;;
37163;Laerm;23057;48.554;14.454;2024-01-27T09:11:24;37.68;34.31;40.71;;
37163;Laerm;23057;48.554;14.454;2024-01-27T09:13:58;37.67;33.44;40.03;;
37163;Laerm;23057;48.554;14.454;2024-01-27T09:16:29;37.72;33.90;40.03;;
37163;Laerm;23057;48.554;14.454;2024-01-27T09:19:00;37.74;34.31;40.13;;
37163;Laerm;23057;48.554;14.454;2024-01-27T09:21:31;37.78;34.31;40.13;;
37163;Laerm;23057;48.554;14.454;2024-01-27T09:24:03;37.75;34.31;40.23;;
37163;Laerm;23057;48.554;14.454;2024-01-27T09:26:34;37.74;34.31;40.03;;
37163;Laerm;23057;48.554;14.454;2024-01-27T09:29:05;37.77;34.31;40.43;;
37163;Laerm;23057;48.554;14.454;2024-01-27T09:31:36;37.78;33.90;40.23;;
37163;Laerm;23057;48.554;14.454;2024-01-27T09:34:07;37.75;33.90;40.33;;
37163;Laerm;23057;48.554;14.454;2024-01-27T09:36:38;37.75;34.69;40.13;;
37163;Laerm;23057;48.554;14.454;2024-01-27T09:39:09;37.71;33.97;40.03;;
37163;Laerm;23057;48.554;14.454;2024-01-27T09:41:41;37.73;33.90;40.33;;
37163;Laerm;23057;48.554;14.454;2024-01-27T09:44:18;37.72;35.04;40.53;;
37163;Laerm;23057;48.554;14.454;2024-01-27T09:46:50;37.75;33.90;40.54;;
37163;Laerm;23057;48.554;14.454;2024-01-27T09:49:29;37.75;34.69;40.43;;
37163;Laerm;23057;48.554;14.454;2024-01-27T09:52:03;37.78;34.31;40.62;;
37163;Laerm;23057;48.554;14.454;2024-01-27T09:54:36;37.75;34.31;40.23;;
37163;Laerm;23057;48.554;14.454;2024-01-27T09:57:09;37.79;33.44;40.23;;
37163;Laerm;23057;48.554;14.454;2024-01-27T09:59:43;37.78;34.69;40.53;;
37163;Laerm;23057;48.554;14.454;2024-01-27T10:02:18;37.78;33.90;40.33;;
37163;Laerm;23057;48.554;14.454;2024-01-27T10:04:53;37.81;33.90;40.71;;
37163;Laerm;23057;48.554;14.454;2024-01-27T10:07:24;37.82;33.90;40.33;;
37163;Laerm;23057;48.554;14.454;2024-01-27T10:09:55;37.82;34.31;40.33;;
37163;Laerm;23057;48.554;14.454;2024-01-27T10:12:29;37.81;33.44;40.23;;
37163;Laerm;23057;48.554;14.454;2024-01-27T10:15:02;37.81;34.31;40.33;;
37163;Laerm;23057;48.554;14.454;2024-01-27T10:17:33;37.84;34.69;40.13;;
37163;Laerm;23057;48.554;14.454;2024-01-27T10:20:08;37.86;33.90;40.23;;
37163;Laerm;23057;48.554;14.454;2024-01-27T10:22:42;37.87;33.90;40.23;;
37163;Laerm;23057;48.554;14.454;2024-01-27T10:25:13;37.84;33.90;40.13;;
37163;Laerm;23057;48.554;14.454;2024-01-27T10:27:44;37.85;34.31;40.23;;
37163;Laerm;23057;48.554;14.454;2024-01-27T10:30:18;37.84;35.04;40.13;;
37163;Laerm;23057;48.554;14.454;2024-01-27T10:32:56;37.88;34.31;40.80;;
37163;Laerm;23057;48.554;14.454;2024-01-27T10:35:30;37.86;34.69;40.03;;
37163;Laerm;23057;48.554;14.454;2024-01-27T10:38:01;37.86;34.69;40.53;;
37163;Laerm;23057;48.554;14.454;2024-01-27T10:40:32;37.87;34.69;40.62;;
37163;Laerm;23057;48.554;14.454;2024-01-27T10:43:07;37.86;34.69;40.23;;
37163;Laerm;23057;48.554;14.454;2024-01-27T10:45:42;37.90;34.31;40.18;;
37163;Laerm;23057;48.554;14.454;2024-01-27T10:48:13;37.90;35.04;40.13;;
37163;Laerm;23057;48.554;14.454;2024-01-27T10:50:48;37.92;35.01;40.33;;
37163;Laerm;23057;48.554;14.454;2024-01-27T10:53:24;37.91;34.69;40.13;;
37163;Laerm;23057;48.554;14.454;2024-01-27T10:55:58;37.91;33.44;40.33;;
37163;Laerm;23057;48.554;14.454;2024-01-27T10:58:30;37.87;34.31;40.23;;
37163;Laerm;23057;48.554;14.454;2024-01-27T11:01:03;37.86;33.90;40.33;;
37163;Laerm;23057;48.554;14.454;2024-01-27T11:03:38;37.89;34.31;40.43;;
37163;Laerm;23057;48.554;14.454;2024-01-27T11:06:13;37.92;34.34;40.33;;
37163;Laerm;23057;48.554;14.454;2024-01-27T11:08:46;37.94;35.04;40.36;;
37163;Laerm;23057;48.554;14.454;2024-01-27T11:11:18;37.96;34.31;40.13;;
37163;Laerm;23057;48.554;14.454;2024-01-27T11:13:50;37.94;34.31;40.43;;
37163;Laerm;23057;48.554;14.454;2024-01-27T11:16:23;37.95;34.31;40.53;;
37163;Laerm;23057;48.554;14.454;2024-01-27T11:18:54;37.91;34.69;40.80;;
37163;Laerm;23057;48.554;14.454;2024-01-27T11:21:25;37.91;34.69;40.43;;
37163;Laerm;23057;48.554;14.454;2024-01-27T11:23:56;37.95;34.31;40.13;;
37163;Laerm;23057;48.554;14.454;2024-01-27T11:26:27;37.95;34.69;40.33;;
37163;Laerm;23057;48.554;14.454;2024-01-27T11:29:06;37.92;35.04;40.89;;
37163;Laerm;23057;48.554;14.454;2024-01-27T11:31:49;37.91;34.69;40.33;;
37163;Laerm;23057;48.554;14.454;2024-01-27T11:34:20;37.95;34.31;40.53;;
37163;Laerm;23057;48.554;14.454;2024-01-27T11:36:50;37.96;34.69;40.33;;
37163;Laerm;23057;48.554;14.454;2024-01-27T11:39:29;37.92;35.04;40.23;;
37163;Laerm;23057;48.554;14.454;2024-01-27T11:42:09;37.93;34.69;40.53;;
37163;Laerm;23057;48.554;14.454;2024-01-27T11:44:42;37.93;35.01;40.62;;
37163;Laerm;23057;48.554;14.454;2024-01-27T11:47:19;37.92;34.69;40.53;;
37163;Laerm;23057;48.554;14.454;2024-01-27T11:49:55;37.95;34.69;40.36;;
37163;Laerm;23057;48.554;14.454;2024-01-27T11:52:28;37.91;34.69;40.62;;
37163;Laerm;23057;48.554;14.454;2024-01-27T11:55:01;37.90;34.69;40.33;;
37163;Laerm;23057;48.554;14.454;2024-01-27T11:57:31;37.87;34.31;40.33;;
37163;Laerm;23057;48.554;14.454;2024-01-27T12:00:03;37.89;33.90;40.62;;
37163;Laerm;23057;48.554;14.454;2024-01-27T12:02:35;37.88;34.69;40.33;;
37163;Laerm;23057;48.554;14.454;2024-01-27T12:05:08;37.90;34.69;40.80;;
37163;Laerm;23057;48.554;14.454;2024-01-27T12:07:39;37.87;34.69;40.53;;
37163;Laerm;23057;48.554;14.454;2024-01-27T12:10:10;37.90;34.69;40.27;;
37163;Laerm;23057;48.554;14.454;2024-01-27T12:12:41;37.88;34.69;40.13;;
37163;Laerm;23057;48.554;14.454;2024-01-27T12:15:12;37.91;34.69;40.53;;
37163;Laerm;23057;48.554;14.454;2024-01-27T12:17:53;37.87;34.31;40.33;;
37163;Laerm;23057;48.554;14.454;2024-01-27T12:20:24;37.88;34.69;40.43;;
37163;Laerm;23057;48.554;14.454;2024-01-27T12:23:04;37.88;34.31;40.23;;
37163;Laerm;23057;48.554;14.454;2024-01-27T12:25:35;37.86;34.69;40.13;;
37163;Laerm;23057;48.554;14.454;2024-01-27T12:28:06;37.84;33.44;40.23;;
37163;Laerm;23057;48.554;14.454;2024-01-27T12:30:38;37.85;34.31;40.62;;
37163;Laerm;23057;48.554;14.454;2024-01-27T12:33:12;37.85;34.69;40.43;;
37163;Laerm;23057;48.554;14.454;2024-01-27T12:35:43;37.87;35.04;40.43;;
37163;Laerm;23057;48.554;14.454;2024-01-27T12:38:14;37.86;34.31;40.03;;
37163;Laerm;23057;48.554;14.454;2024-01-27T12:40:45;37.85;34.69;40.33;;
37163;Laerm;23057;48.554;14.454;2024-01-27T12:43:16;37.84;34.69;40.23;;
37163;Laerm;23057;48.554;14.454;2024-01-27T12:45:47;37.83;34.31;40.53;;
37163;Laerm;23057;48.554;14.454;2024-01-27T12:48:18;37.84;34.31;40.23;;
37163;Laerm;23057;48.554;14.454;2024-01-27T12:50:49;37.83;34.31;40.43;;
37163;Laerm;23057;48.554;14.454;2024-01-27T12:53:20;37.86;34.31;40.33;;
37163;Laerm;23057;48.554;14.454;2024-01-27T12:55:51;37.83;34.31;40.53;;
37163;Laerm;23057;48.554;14.454;2024-01-27T12:58:22;37.81;34.31;40.23;;
37163;Laerm;23057;48.554;14.454;2024-01-27T13:00:53;37.80;33.90;40.23;;
37163;Laerm;23057;48.554;14.454;2024-01-27T13:03:24;37.77;33.44;40.43;;
37163;Laerm;23057;48.554;14.454;2024-01-27T13:05:56;37.79;33.09;40.43;;
37163;Laerm;23057;48.554;14.454;2024-01-27T13:08:28;37.75;33.90;40.53;;
37163;Laerm;23057;48.554;14.454;2024-01-27T13:10:59;37.74;34.31;40.23;;
37163;Laerm;23057;48.554;14.454;2024-01-27T13:13:29;37.77;33.90;40.43;;
37163;Laerm;23057;48.554;14.454;2024-01-27T13:16:00;37.76;34.69;40.33;;
37163;Laerm;23057;48.554;14.454;2024-01-27T13:18:31;37.76;34.69;40.33;;
37163;Laerm;23057;48.554;14.454;2024-01-27T13:21:02;37.77;34.31;39.92;;
37163;Laerm;23057;48.554;14.454;2024-01-27T13:23:34;37.78;34.69;40.62;;
37163;Laerm;23057;48.554;14.454;2024-01-27T13:26:06;37.78;34.31;40.43;;
37163;Laerm;23057;48.554;14.454;2024-01-27T13:28:37;37.82;34.34;40.23;;
37163;Laerm;23057;48.554;14.454;2024-01-27T13:31:08;37.83;34.31;40.43;;
37163;Laerm;23057;48.554;14.454;2024-01-27T13:33:39;37.80;33.44;40.33;;
37163;Laerm;23057;48.554;14.454;2024-01-27T13:36:09;37.79;34.31;40.33;;
37163;Laerm;23057;48.554;14.454;2024-01-27T13:38:40;37.78;33.97;40.33;;
37163;Laerm;23057;48.554;14.454;2024-01-27T13:41:11;37.80;34.31;40.23;;
37163;Laerm;23057;48.554;14.454;2024-01-27T13:43:42;37.82;34.69;40.33;;
37163;Laerm;23057;48.554;14.454;2024-01-27T13:46:13;37.80;34.31;40.62;;
37163;Laerm;23057;48.554;14.454;2024-01-27T13:48:44;37.80;34.69;40.13;;
37163;Laerm;23057;48.554;14.454;2024-01-27T13:51:16;37.79;34.31;40.53;;
37163;Laerm;23057;48.554;14.454;2024-01-27T13:53:47;37.78;34.31;40.13;;
37163;Laerm;23057;48.554;14.454;2024-01-27T13:56:18;37.77;34.31;40.43;;